createdAt,value
2019-03-13T00:01:23.842Z,14.00
2019-03-13T00:03:51.711Z,15.57
2019-03-13T00:06:19.651Z,12.37
2019-03-13T00:08:47.623Z,13.20
2019-03-13T00:11:15.382Z,12.00
2019-03-13T00:13:43.150Z,10.23
2019-03-13T00:16:11.330Z,13.37
2019-03-13T00:18:39.191Z,12.47
2019-03-13T00:21:07.066Z,12.97
2019-03-13T00:23:34.849Z,10.73
2019-03-13T00:26:02.589Z,11.60
2019-03-13T00:28:30.293Z,9.67
2019-03-13T00:30:57.948Z,12.13
2019-03-13T00:33:25.784Z,10.97
2019-03-13T00:35:53.556Z,13.10
2019-03-13T00:38:21.336Z,8.13
2019-03-13T00:40:49.398Z,10.13
2019-03-13T00:43:17.271Z,10.13
2019-03-13T00:45:45.338Z,11.57
2019-03-13T00:48:13.100Z,9.03
2019-03-13T00:50:40.874Z,11.23
2019-03-13T00:53:08.638Z,10.83
2019-03-13T00:55:36.409Z,9.77
2019-03-13T00:58:04.270Z,9.67
2019-03-13T01:00:50.061Z,11.00
2019-03-13T01:03:19.357Z,9.93
2019-03-13T01:05:57.784Z,9.07
2019-03-13T01:08:25.936Z,7.90
2019-03-13T01:10:53.733Z,10.70
2019-03-13T01:13:21.488Z,8.37
2019-03-13T01:15:49.354Z,8.23
2019-03-13T01:18:17.113Z,8.53
2019-03-13T01:20:44.880Z,9.37
2019-03-13T01:23:12.761Z,10.03
2019-03-13T01:25:40.441Z,7.83
2019-03-13T01:28:08.189Z,6.97
2019-03-13T01:30:46.701Z,7.73
2019-03-13T01:33:16.108Z,8.30
2019-03-13T01:35:45.417Z,8.63
2019-03-13T01:38:13.378Z,8.57
2019-03-13T01:40:41.247Z,8.10
2019-03-13T01:43:08.919Z,10.77
2019-03-13T01:45:36.779Z,9.00
2019-03-13T01:48:04.647Z,8.60
2019-03-13T01:50:32.418Z,9.57
2019-03-13T01:53:00.055Z,9.50
2019-03-13T01:55:27.842Z,8.23
2019-03-13T01:57:55.604Z,9.23
2019-03-13T02:00:23.384Z,8.40
2019-03-13T02:02:51.140Z,9.13
2019-03-13T02:05:18.767Z,8.33
2019-03-13T02:07:46.407Z,7.50
2019-03-13T02:10:14.228Z,8.53
2019-03-13T02:12:41.919Z,7.20
2019-03-13T02:15:14.164Z,7.07
2019-03-13T02:17:42.032Z,7.10
2019-03-13T02:20:10.218Z,8.07
2019-03-13T02:22:37.871Z,8.50
2019-03-13T02:25:06.866Z,7.40
2019-03-13T02:27:34.739Z,8.63
2019-03-13T02:30:02.607Z,7.47
2019-03-13T02:32:30.369Z,7.87
2019-03-13T02:34:58.139Z,6.20
2019-03-13T02:37:26.112Z,7.57
2019-03-13T02:39:53.770Z,7.30
2019-03-13T02:42:21.533Z,6.07
2019-03-13T02:44:49.301Z,6.27
2019-03-13T02:47:18.872Z,6.30
2019-03-13T02:49:46.580Z,5.73
2019-03-13T02:52:14.446Z,5.27
2019-03-13T02:54:42.101Z,5.20
2019-03-13T02:57:09.749Z,5.20
2019-03-13T02:59:37.539Z,4.83
2019-03-13T03:02:12.895Z,5.60
2019-03-13T03:04:40.752Z,5.30
2019-03-13T03:07:11.367Z,4.77
2019-03-13T03:09:37.932Z,4.03
2019-03-13T03:12:05.681Z,3.57
2019-03-13T03:14:33.457Z,4.00
2019-03-13T03:17:01.209Z,4.03
2019-03-13T03:19:28.997Z,4.10
2019-03-13T03:21:56.868Z,3.77
2019-03-13T03:24:24.824Z,3.37
2019-03-13T03:26:52.498Z,3.97
2019-03-13T03:29:20.757Z,3.60
2019-03-13T03:31:48.525Z,3.60
2019-03-13T03:34:16.282Z,3.53
2019-03-13T03:36:44.057Z,4.20
2019-03-13T03:39:11.829Z,3.60
2019-03-13T03:41:39.696Z,4.17
2019-03-13T03:44:07.502Z,3.30
2019-03-13T03:46:35.435Z,3.97
2019-03-13T03:49:03.200Z,3.90
2019-03-13T03:51:30.954Z,3.70
2019-03-13T03:53:58.736Z,3.70
2019-03-13T03:56:26.733Z,3.37
2019-03-13T03:58:54.516Z,3.90
2019-03-13T04:01:22.440Z,3.47
2019-03-13T04:03:50.201Z,4.20
2019-03-13T04:06:18.023Z,3.40
2019-03-13T04:08:45.838Z,4.00
2019-03-13T04:11:13.708Z,3.90
2019-03-13T04:13:44.537Z,4.23
2019-03-13T04:16:10.873Z,4.07
2019-03-13T04:18:38.653Z,3.87
2019-03-13T04:21:06.283Z,3.33
2019-03-13T04:23:34.179Z,3.90
2019-03-13T04:26:02.004Z,3.57
2019-03-13T04:28:29.696Z,3.40
2019-03-13T04:30:57.485Z,4.00
2019-03-13T04:33:28.092Z,4.63
2019-03-13T04:35:54.654Z,3.20
2019-03-13T04:38:22.401Z,4.07
2019-03-13T04:40:50.171Z,3.83
2019-03-13T04:43:17.841Z,3.37
2019-03-13T04:45:45.708Z,3.87
2019-03-13T04:48:13.468Z,3.93
2019-03-13T04:50:41.235Z,3.80
2019-03-13T04:53:09.017Z,4.33
2019-03-13T04:55:36.874Z,3.63
2019-03-13T04:58:04.504Z,4.87
2019-03-13T05:00:32.406Z,3.70
2019-03-13T05:03:00.274Z,4.60
2019-03-13T05:05:32.114Z,5.33
2019-03-13T05:07:59.899Z,4.33
2019-03-13T05:10:27.545Z,5.23
2019-03-13T05:12:55.251Z,4.80
2019-03-13T05:15:22.989Z,5.03
2019-03-13T05:17:50.863Z,4.70
2019-03-13T05:20:18.503Z,5.07
2019-03-13T05:22:46.377Z,5.20
2019-03-13T05:25:14.178Z,4.13
2019-03-13T05:27:41.916Z,4.60
2019-03-13T05:30:09.895Z,4.53
2019-03-13T05:32:37.644Z,4.77
2019-03-13T05:35:05.816Z,4.57
2019-03-13T05:37:33.598Z,5.07
2019-03-13T05:40:01.368Z,4.00
2019-03-13T05:42:29.128Z,4.87
2019-03-13T05:44:56.903Z,5.10
2019-03-13T05:47:24.548Z,4.47
2019-03-13T05:49:52.434Z,4.87
2019-03-13T05:52:20.198Z,5.37
2019-03-13T05:54:47.966Z,4.67
2019-03-13T05:57:15.725Z,5.13
2019-03-13T05:59:43.600Z,4.87
2019-03-13T06:02:11.469Z,4.77
2019-03-13T06:04:39.229Z,4.87
2019-03-13T06:07:06.876Z,4.97
2019-03-13T06:09:34.648Z,4.10
2019-03-13T06:12:02.324Z,4.70
2019-03-13T06:14:29.995Z,3.87
2019-03-13T06:16:57.653Z,4.53
2019-03-13T06:19:25.272Z,5.10
2019-03-13T06:21:53.089Z,5.20
2019-03-13T06:24:20.715Z,5.37
2019-03-13T06:26:48.402Z,5.07
2019-03-13T06:29:16.280Z,4.47
2019-03-13T06:31:44.045Z,4.67
2019-03-13T06:34:11.827Z,5.53
2019-03-13T06:36:39.537Z,4.17
2019-03-13T06:39:07.237Z,5.03
2019-03-13T06:41:35.110Z,4.10
2019-03-13T06:44:02.872Z,4.87
2019-03-13T06:46:30.636Z,5.43
2019-03-13T06:48:58.301Z,5.17
2019-03-13T06:51:26.068Z,5.73
2019-03-13T06:53:53.937Z,4.50
2019-03-13T06:56:21.807Z,4.67
2019-03-13T06:58:57.056Z,5.50
2019-03-13T07:01:41.604Z,5.43
2019-03-13T07:04:10.915Z,5.07
2019-03-13T07:06:43.062Z,4.47
2019-03-13T07:09:12.592Z,5.20
2019-03-13T07:11:48.130Z,6.60
2019-03-13T07:14:26.540Z,4.53
2019-03-13T07:17:01.583Z,5.63
2019-03-13T07:19:33.965Z,36.90
2019-03-13T07:22:06.245Z,4.90
2019-03-13T07:24:35.448Z,4.47
2019-03-13T07:27:22.956Z,6.70
2019-03-13T07:29:58.607Z,4.10
2019-03-13T07:32:36.859Z,4.53
2019-03-13T07:35:25.371Z,4.47
2019-03-13T07:37:54.674Z,4.03
2019-03-13T07:40:27.059Z,5.53
2019-03-13T07:42:56.558Z,4.90
2019-03-13T07:45:28.249Z,5.07
2019-03-13T07:47:57.517Z,5.07
2019-03-13T07:50:36.047Z,4.87
2019-03-13T07:53:08.309Z,5.40
2019-03-13T07:55:54.109Z,5.20
2019-03-13T07:58:32.213Z,5.47
2019-03-13T08:01:07.547Z,5.33
2019-03-13T08:03:45.763Z,6.03
2019-03-13T08:06:17.929Z,5.87
2019-03-13T08:08:53.170Z,5.93
2019-03-13T08:11:25.349Z,5.73
2019-03-13T08:13:54.748Z,6.37
2019-03-13T08:16:26.806Z,6.47
2019-03-13T08:19:11.486Z,5.27
2019-03-13T08:21:55.807Z,6.57
2019-03-13T08:24:25.334Z,5.97
2019-03-13T08:27:09.784Z,6.07
2019-03-13T08:29:47.896Z,5.80
2019-03-13T08:32:26.102Z,5.97
2019-03-13T08:35:07.492Z,6.77
2019-03-13T08:37:45.687Z,7.13
2019-03-13T08:40:31.693Z,6.37
2019-03-13T08:43:10.005Z,6.27
2019-03-13T08:45:48.738Z,6.93
2019-03-13T08:48:18.347Z,6.50
2019-03-13T08:50:59.833Z,5.77
2019-03-13T08:53:29.343Z,4.90
2019-03-13T08:56:01.300Z,5.20
2019-03-13T08:58:39.306Z,5.60
2019-03-13T09:01:14.142Z,5.40
2019-03-13T09:03:46.207Z,5.90
2019-03-13T09:06:34.043Z,5.30
2019-03-13T09:09:15.432Z,9.87
2019-03-13T09:11:47.788Z,5.63
2019-03-13T09:14:17.221Z,6.30
2019-03-13T09:17:04.949Z,6.07
2019-03-13T09:19:50.916Z,19.13
2019-03-13T09:22:32.607Z,6.27
2019-03-13T09:25:12.365Z,6.53
2019-03-13T09:27:57.239Z,6.97
2019-03-13T09:30:45.176Z,6.40
2019-03-13T09:33:23.372Z,7.23
2019-03-13T09:35:55.722Z,11.67
2019-03-13T09:38:28.143Z,16.10
2019-03-13T09:41:15.719Z,17.40
2019-03-13T09:43:54.395Z,7.67
2019-03-13T09:46:23.637Z,137.67
2019-03-13T09:48:52.988Z,8.40
2019-03-13T09:51:24.788Z,11.40
2019-03-13T09:54:09.530Z,53.87
2019-03-13T09:56:38.772Z,14.30
2019-03-13T09:59:17.036Z,7.93
2019-03-13T10:02:01.063Z,35.00
2019-03-13T10:04:33.455Z,11.13
2019-03-13T10:07:02.857Z,11.60
2019-03-13T10:09:48.748Z,86.33
2019-03-13T10:12:34.542Z,18.00
2019-03-13T10:15:20.439Z,15.13
2019-03-13T10:18:06.523Z,8.13
2019-03-13T10:20:38.813Z,24.07
2019-03-13T10:23:08.207Z,7.53
2019-03-13T10:25:37.712Z,8.93
2019-03-13T10:28:06.946Z,10.17
2019-03-13T10:30:42.053Z,9.87
2019-03-13T10:33:11.347Z,9.97
2019-03-13T10:35:40.760Z,9.40
2019-03-13T10:38:14.450Z,9.73
2019-03-13T10:40:46.454Z,8.97
2019-03-13T10:43:25.057Z,9.13
2019-03-13T10:45:54.548Z,8.90
2019-03-13T10:48:26.529Z,7.63
2019-03-13T10:50:59.096Z,9.27
2019-03-13T10:53:34.624Z,8.40
2019-03-13T10:56:20.526Z,8.03
2019-03-13T10:58:49.831Z,8.53
2019-03-13T11:01:22.295Z,7.97
2019-03-13T11:04:04.109Z,8.60
2019-03-13T11:06:54.095Z,7.83
2019-03-13T11:09:13.562Z,8.30
2019-03-13T11:11:55.157Z,8.90
2019-03-13T11:14:39.612Z,7.00
2019-03-13T11:17:11.574Z,7.13
2019-03-13T11:19:43.537Z,8.00
2019-03-13T11:22:29.495Z,9.50
2019-03-13T11:25:01.490Z,7.20
2019-03-13T11:27:36.653Z,9.43
2019-03-13T11:30:06.814Z,10.50
2019-03-13T11:32:42.071Z,8.10
2019-03-13T11:35:20.521Z,7.83
2019-03-13T11:37:49.921Z,6.63
2019-03-13T11:40:35.491Z,6.63
2019-03-13T11:43:21.406Z,6.80
2019-03-13T11:45:50.800Z,6.87
2019-03-13T11:48:20.020Z,7.43
2019-03-13T11:51:06.196Z,6.03
2019-03-13T11:53:35.602Z,8.43
2019-03-13T11:56:04.823Z,6.97
2019-03-13T11:58:52.433Z,5.77
2019-03-13T12:01:30.753Z,5.23
2019-03-13T12:04:08.939Z,5.13
2019-03-13T12:06:38.260Z,4.93
2019-03-13T12:09:13.814Z,5.60
2019-03-13T12:11:43.096Z,5.10
2019-03-13T12:14:19.072Z,8.07
2019-03-13T12:16:51.346Z,4.33
2019-03-13T12:19:23.511Z,4.37
2019-03-13T12:21:52.817Z,3.80
2019-03-13T12:24:25.081Z,4.13
2019-03-13T12:26:57.175Z,4.00
2019-03-13T12:29:29.426Z,4.07
2019-03-13T12:31:58.642Z,4.77
2019-03-13T12:34:27.903Z,5.30
2019-03-13T12:37:15.659Z,4.63
2019-03-13T12:40:01.649Z,4.57
2019-03-13T12:42:36.667Z,5.63
2019-03-13T12:45:20.619Z,5.27
2019-03-13T12:47:50.041Z,4.50
2019-03-13T12:50:34.081Z,5.37
2019-03-13T12:53:03.086Z,5.87
2019-03-13T12:55:35.145Z,4.63
2019-03-13T12:58:16.525Z,5.50
2019-03-13T13:00:48.800Z,4.97
2019-03-13T13:03:23.693Z,2.90
2019-03-13T13:05:55.818Z,3.83
2019-03-13T13:08:41.916Z,3.33
2019-03-13T13:11:13.925Z,3.80
2019-03-13T13:13:58.425Z,3.80
2019-03-13T13:16:30.737Z,3.17
2019-03-13T13:18:58.443Z,3.53
2019-03-13T13:21:26.212Z,3.20
2019-03-13T13:23:53.992Z,3.73
2019-03-13T13:26:21.871Z,3.70
2019-03-13T13:28:49.589Z,2.87
2019-03-13T13:31:17.293Z,4.00
2019-03-13T13:33:45.060Z,3.60
2019-03-13T13:36:12.814Z,3.40
2019-03-13T13:38:40.512Z,4.33
2019-03-13T13:41:08.238Z,4.03
2019-03-13T13:43:35.921Z,3.40
2019-03-13T13:46:12.083Z,4.10
2019-03-13T13:48:39.937Z,3.70
2019-03-13T13:51:07.576Z,4.20
2019-03-13T13:53:35.383Z,3.97
2019-03-13T13:56:03.258Z,4.27
2019-03-13T13:58:31.117Z,3.77
2019-03-13T14:00:59.293Z,4.33
2019-03-13T14:03:26.935Z,5.20
2019-03-13T14:05:54.571Z,4.73
2019-03-13T14:08:22.471Z,3.67
2019-03-13T14:10:50.356Z,3.53
2019-03-13T14:13:18.424Z,3.93
2019-03-13T14:15:46.059Z,3.60
2019-03-13T14:18:13.753Z,3.53
2019-03-13T14:20:41.503Z,3.40
2019-03-13T14:23:09.390Z,3.37
2019-03-13T14:25:37.267Z,3.67
2019-03-13T14:28:05.130Z,4.57
2019-03-13T14:30:33.059Z,2.80
2019-03-13T14:33:00.740Z,3.50
2019-03-13T14:35:28.546Z,2.40
2019-03-13T14:37:56.404Z,2.50
2019-03-13T14:40:24.165Z,3.13
2019-03-13T14:42:51.944Z,2.07
2019-03-13T14:45:19.892Z,2.40
2019-03-13T14:47:47.643Z,3.37
2019-03-13T14:50:21.773Z,3.77
2019-03-13T14:52:49.644Z,2.60
2019-03-13T14:55:17.914Z,8.97
2019-03-13T14:57:45.697Z,154.40
2019-03-13T15:00:17.661Z,7.53
2019-03-13T15:02:45.381Z,43.10
2019-03-13T15:05:13.290Z,35.77
2019-03-13T15:10:51.196Z,3.10
2019-03-13T15:13:18.963Z,4.33
2019-03-13T15:15:46.652Z,5.83
2019-03-13T15:18:14.387Z,3.90
2019-03-13T15:20:42.172Z,6.93
2019-03-13T15:23:09.821Z,2.90
2019-03-13T15:25:37.597Z,27.53
2019-03-13T15:28:05.786Z,127.03
2019-03-13T15:30:33.851Z,22.83
2019-03-13T15:33:01.720Z,88.63
2019-03-13T15:35:29.509Z,108.30
2019-03-13T15:37:57.137Z,97.43
2019-03-13T15:40:24.909Z,98.30
2019-03-13T15:42:53.209Z,37.70
2019-03-13T15:45:24.527Z,44.90
2019-03-13T15:47:52.292Z,20.97
2019-03-13T15:50:20.176Z,64.77
2019-03-13T15:52:47.948Z,89.93
2019-03-13T15:55:16.435Z,112.87
2019-03-13T15:57:44.179Z,113.30
2019-03-13T16:00:16.117Z,62.77
2019-03-13T16:02:43.816Z,22.50
2019-03-13T16:05:11.592Z,26.77
2019-03-13T16:07:39.356Z,40.43
2019-03-13T16:10:08.739Z,36.50
2019-03-13T16:12:36.409Z,38.17
2019-03-13T16:15:05.418Z,39.13
2019-03-13T16:17:33.180Z,24.27
2019-03-13T16:20:00.944Z,14.70
2019-03-13T16:22:28.714Z,22.70
2019-03-13T16:24:56.460Z,12.37
2019-03-13T16:27:24.184Z,10.57
2019-03-13T16:29:52.014Z,18.13
2019-03-13T16:32:20.491Z,7.03
2019-03-13T16:34:48.364Z,4.30
2019-03-13T16:37:16.234Z,4.53
2019-03-13T16:39:43.892Z,6.17
2019-03-13T16:42:11.665Z,5.13
2019-03-13T16:44:39.424Z,3.67
2019-03-13T16:47:07.055Z,7.80
2019-03-13T16:49:34.739Z,4.17
2019-03-13T16:52:02.510Z,4.47
2019-03-13T16:54:30.281Z,4.93
2019-03-13T16:56:58.156Z,4.03
2019-03-13T16:59:25.917Z,18.17
2019-03-13T17:01:54.093Z,9.10
2019-03-13T17:04:21.728Z,7.53
2019-03-13T17:06:49.526Z,3.60
2019-03-13T17:09:17.395Z,12.07
2019-03-13T17:11:45.020Z,16.17
2019-03-13T17:14:12.721Z,7.67
2019-03-13T17:16:40.592Z,9.40
2019-03-13T17:19:08.458Z,8.57
2019-03-13T17:21:36.109Z,10.07
2019-03-13T17:24:04.399Z,106.67
2019-03-13T17:26:32.267Z,69.53
2019-03-13T17:29:00.035Z,116.73
2019-03-13T17:31:27.792Z,34.93
2019-03-13T17:33:55.575Z,105.70
2019-03-13T17:36:23.430Z,47.57
2019-03-13T17:38:51.184Z,106.23
2019-03-13T17:41:18.977Z,46.60
2019-03-13T17:43:46.833Z,51.40
2019-03-13T17:46:14.585Z,8.77
2019-03-13T17:48:42.289Z,10.87
2019-03-13T17:51:10.025Z,12.93
2019-03-13T17:53:37.790Z,8.60
2019-03-13T17:56:05.451Z,8.80
2019-03-13T17:58:33.144Z,10.87
2019-03-13T18:01:00.999Z,8.97
2019-03-13T18:03:28.755Z,41.00
2019-03-13T18:05:56.518Z,36.93
2019-03-13T18:08:24.390Z,37.20
2019-03-13T18:10:52.080Z,75.60
2019-03-13T18:13:19.917Z,72.43
2019-03-13T18:15:47.690Z,31.40
2019-03-13T18:18:15.556Z,14.53
2019-03-13T18:20:43.332Z,58.30
2019-03-13T18:23:11.088Z,123.63
2019-03-13T18:25:38.956Z,181.83
2019-03-13T18:28:06.922Z,233.17
2019-03-13T18:30:35.203Z,391.50
2019-03-13T18:33:02.968Z,181.27
2019-03-13T18:35:30.836Z,227.57
2019-03-13T18:37:58.609Z,22.70
2019-03-13T18:40:26.473Z,5.60
2019-03-13T18:42:54.248Z,5.97
2019-03-13T18:45:28.672Z,9.47
2019-03-13T18:47:56.541Z,5.33
2019-03-13T18:50:24.499Z,9.20
2019-03-13T18:52:52.276Z,11.70
2019-03-13T18:55:21.465Z,8.33
2019-03-13T18:57:50.757Z,9.10
2019-03-13T19:00:25.185Z,6.63
2019-03-13T19:02:53.359Z,7.70
2019-03-13T19:05:21.125Z,8.20
2019-03-13T19:07:48.893Z,7.70
2019-03-13T19:10:23.940Z,9.60
2019-03-13T19:12:51.898Z,10.13
2019-03-13T19:15:20.405Z,12.83
2019-03-13T19:17:48.146Z,12.50
2019-03-13T19:20:16.920Z,12.60
2019-03-13T19:22:44.810Z,12.40
2019-03-13T19:25:13.082Z,11.13
2019-03-13T19:27:40.957Z,11.70
2019-03-13T19:33:19.087Z,12.33
2019-03-13T19:35:46.955Z,13.10
2019-03-13T19:38:15.117Z,13.33
2019-03-13T19:40:42.853Z,10.13
2019-03-13T19:43:10.660Z,11.87
2019-03-13T19:45:39.648Z,11.17
2019-03-13T19:48:07.527Z,9.43
2019-03-13T19:50:35.270Z,10.10
2019-03-13T19:53:03.058Z,8.37
2019-03-13T19:55:30.807Z,13.17
2019-03-13T19:57:58.693Z,42.47
2019-03-13T20:00:26.621Z,22.63
2019-03-13T20:03:00.234Z,9.67
2019-03-13T20:05:25.122Z,13.03
2019-03-13T20:07:52.892Z,8.27
2019-03-13T20:10:21.917Z,8.17
2019-03-13T20:12:49.669Z,6.97
2019-03-13T20:15:18.356Z,8.73
2019-03-13T20:17:46.146Z,8.00
2019-03-13T20:20:18.006Z,8.00
2019-03-13T20:22:46.060Z,6.97
2019-03-13T20:25:17.470Z,13.43
2019-03-13T20:27:43.989Z,9.50
2019-03-13T20:30:13.281Z,6.80
2019-03-13T20:32:41.135Z,7.90
2019-03-13T20:35:09.307Z,6.10
2019-03-13T20:37:36.947Z,6.57
2019-03-13T20:40:06.359Z,7.00
2019-03-13T20:42:34.039Z,5.33
2019-03-13T20:45:01.687Z,6.87
2019-03-13T20:47:29.585Z,9.07
2019-03-13T20:49:57.345Z,7.20
2019-03-13T20:52:25.100Z,8.77
2019-03-13T20:54:52.796Z,5.73
2019-03-13T20:57:20.648Z,7.10
2019-03-13T20:59:48.399Z,7.83
2019-03-13T21:02:16.180Z,7.23
2019-03-13T21:04:43.915Z,7.77
2019-03-13T21:07:11.804Z,7.93
2019-03-13T21:09:39.443Z,17.10
2019-03-13T21:12:07.336Z,12.70
2019-03-13T21:14:36.067Z,9.37
2019-03-13T21:17:04.123Z,20.87
2019-03-13T21:19:31.847Z,22.10
2019-03-13T21:21:59.726Z,13.57
2019-03-13T21:24:27.484Z,22.83
2019-03-13T21:26:55.253Z,14.37
2019-03-13T21:29:23.245Z,13.23
2019-03-13T21:31:50.993Z,9.27
2019-03-13T21:34:18.868Z,8.07
2019-03-13T21:36:46.611Z,7.93
2019-03-13T21:39:14.396Z,10.93
2019-03-13T21:41:42.028Z,9.70
2019-03-13T21:44:10.035Z,11.10
2019-03-13T21:46:37.789Z,9.60
2019-03-13T21:49:08.104Z,11.17
2019-03-13T21:51:34.963Z,9.63
2019-03-13T21:54:02.716Z,10.70
2019-03-13T21:56:30.397Z,9.70
2019-03-13T21:58:58.041Z,8.77
2019-03-13T22:01:25.807Z,9.50
2019-03-13T22:03:53.591Z,8.47
2019-03-13T22:06:28.528Z,10.27
2019-03-13T22:08:50.966Z,10.17
2019-03-13T22:11:18.749Z,11.57
2019-03-13T22:13:46.424Z,10.73
2019-03-13T22:16:14.161Z,13.13
2019-03-13T22:18:41.946Z,11.23
2019-03-13T22:21:09.902Z,10.73
2019-03-13T22:23:37.674Z,11.10
2019-03-13T22:26:05.735Z,11.30
2019-03-13T22:28:33.496Z,9.90
2019-03-13T22:31:02.775Z,12.53
2019-03-13T22:33:30.881Z,10.03
2019-03-13T22:35:58.648Z,11.03
2019-03-13T22:38:26.511Z,12.27
2019-03-13T22:40:54.272Z,11.03
2019-03-13T22:43:22.040Z,12.53
2019-03-13T22:45:49.796Z,11.27
2019-03-13T22:48:17.681Z,11.60
2019-03-13T22:50:45.554Z,11.87
2019-03-13T22:53:13.422Z,7.83
2019-03-13T22:55:41.472Z,12.33
2019-03-13T22:58:09.260Z,11.10
2019-03-13T23:00:56.491Z,10.70
2019-03-13T23:03:25.239Z,12.07
2019-03-13T23:05:53.070Z,11.27
2019-03-13T23:08:21.224Z,11.20
2019-03-13T23:10:48.981Z,10.13
2019-03-13T23:13:17.606Z,10.40
2019-03-13T23:15:46.347Z,11.53
2019-03-13T23:18:14.321Z,10.20
2019-03-13T23:20:42.185Z,10.00
2019-03-13T23:23:09.819Z,12.23
2019-03-13T23:25:37.638Z,11.77
2019-03-13T23:28:05.367Z,11.13
2019-03-13T23:30:33.151Z,9.43
2019-03-13T23:33:01.025Z,11.37
2019-03-13T23:35:28.883Z,11.50
2019-03-13T23:37:56.657Z,11.27
2019-03-13T23:40:24.432Z,10.73
2019-03-13T23:42:52.200Z,10.40
2019-03-13T23:45:19.960Z,11.33
2019-03-13T23:47:47.820Z,10.00
2019-03-13T23:50:15.583Z,10.20
2019-03-13T23:52:43.357Z,9.80
2019-03-13T23:55:11.229Z,10.20
2019-03-13T23:57:39.090Z,10.30
